createdAt,value
2022-11-08T00:00:22.897Z,98.30
2022-11-08T00:02:50.952Z,98.00
2022-11-08T00:05:36.468Z,98.00
2022-11-08T00:08:22.550Z,97.50
2022-11-08T00:11:08.194Z,95.90
2022-11-08T00:13:53.927Z,95.90
2022-11-08T00:16:23.546Z,97.00
2022-11-08T00:18:51.330Z,97.40
2022-11-08T00:21:19.294Z,98.10
2022-11-08T00:23:48.075Z,98.50
2022-11-08T00:26:16.080Z,98.10
2022-11-08T00:28:44.137Z,98.40
2022-11-08T00:31:12.233Z,98.80
2022-11-08T00:33:41.573Z,98.40
2022-11-08T00:36:10.340Z,97.80
2022-11-08T00:38:41.752Z,98.20
2022-11-08T00:41:09.754Z,97.90
2022-11-08T00:43:37.775Z,97.70
2022-11-08T00:46:05.815Z,98.10
2022-11-08T00:48:33.848Z,98.20
2022-11-08T00:51:04.533Z,97.10
2022-11-08T00:53:32.708Z,96.30
2022-11-08T00:56:01.419Z,95.60
2022-11-08T00:58:29.996Z,94.70
2022-11-08T01:00:58.742Z,93.80
2022-11-08T01:03:27.562Z,93.90
2022-11-08T01:05:56.215Z,92.00
2022-11-08T01:08:25.798Z,91.50
2022-11-08T01:10:53.870Z,92.10
2022-11-08T01:13:22.648Z,93.70
2022-11-08T01:15:51.037Z,93.80
2022-11-08T01:18:20.018Z,95.50
2022-11-08T01:20:50.719Z,94.60
2022-11-08T01:23:21.200Z,95.40
2022-11-08T01:25:51.091Z,95.30
2022-11-08T01:28:19.610Z,95.30
2022-11-08T01:30:48.357Z,95.80
2022-11-08T01:33:16.771Z,96.30
2022-11-08T01:35:47.859Z,95.50
2022-11-08T01:38:16.180Z,94.90
2022-11-08T01:40:45.910Z,95.90
2022-11-08T01:43:41.475Z,95.70
2022-11-08T01:46:36.195Z,96.80
2022-11-08T01:49:35.005Z,98.70
2022-11-08T01:52:24.278Z,99.60
2022-11-08T01:54:57.437Z,98.30
2022-11-08T01:57:29.292Z,98.50
2022-11-08T02:00:03.372Z,98.20
2022-11-08T02:02:31.588Z,98.00
2022-11-08T02:05:00.102Z,97.30
2022-11-08T02:07:30.251Z,96.80
2022-11-08T02:09:59.109Z,96.00
2022-11-08T02:12:28.637Z,96.40
2022-11-08T02:14:58.127Z,96.70
2022-11-08T02:17:26.020Z,96.30
2022-11-08T02:19:54.146Z,96.30
2022-11-08T02:22:28.494Z,96.30
2022-11-08T02:25:00.206Z,97.20
2022-11-08T02:27:28.478Z,97.00
2022-11-08T02:29:57.020Z,97.40
2022-11-08T02:32:25.374Z,99.30
2022-11-08T02:34:57.302Z,99.40
2022-11-08T02:37:28.235Z,99.40
2022-11-08T02:39:57.664Z,98.90
2022-11-08T02:42:25.744Z,99.00
2022-11-08T02:44:53.797Z,98.00
2022-11-08T02:47:21.812Z,96.90
2022-11-08T02:49:49.798Z,96.50
2022-11-08T02:52:17.842Z,97.60
2022-11-08T02:54:45.863Z,98.60
2022-11-08T02:57:15.268Z,97.50
2022-11-08T02:59:43.288Z,97.10
2022-11-08T03:02:11.435Z,96.90
2022-11-08T03:04:39.531Z,97.20
2022-11-08T03:07:07.546Z,97.50
2022-11-08T03:09:35.522Z,97.50
2022-11-08T03:12:03.554Z,97.10
2022-11-08T03:14:32.899Z,96.70
2022-11-08T03:17:00.925Z,95.60
2022-11-08T03:19:28.898Z,96.50
2022-11-08T03:21:56.900Z,97.80
2022-11-08T03:24:24.883Z,98.60
2022-11-08T03:26:52.861Z,98.90
2022-11-08T03:29:20.848Z,98.90
2022-11-08T03:31:50.195Z,99.00
2022-11-08T03:34:18.296Z,99.50
2022-11-08T03:36:46.296Z,99.40
2022-11-08T03:39:14.496Z,99.10
2022-11-08T03:41:42.459Z,99.40
2022-11-08T03:44:10.563Z,99.30
2022-11-08T03:46:38.549Z,98.50
2022-11-08T03:49:08.153Z,98.40
2022-11-08T03:51:35.984Z,97.60
2022-11-08T03:54:03.953Z,97.70
2022-11-08T03:56:31.996Z,97.80
2022-11-08T03:59:00.077Z,97.90
2022-11-08T04:01:28.235Z,97.60
2022-11-08T04:03:56.354Z,97.40
2022-11-08T04:06:25.767Z,99.30
2022-11-08T04:08:53.788Z,99.00
2022-11-08T04:11:35.684Z,98.80
2022-11-08T04:14:21.408Z,97.70
2022-11-08T04:16:49.471Z,96.90
2022-11-08T04:19:34.927Z,96.90
2022-11-08T04:22:04.608Z,96.20
2022-11-08T04:24:32.683Z,96.00
2022-11-08T04:27:01.462Z,96.10
2022-11-08T04:29:29.697Z,96.50
2022-11-08T04:31:57.668Z,95.80
2022-11-08T04:34:25.647Z,96.60
2022-11-08T04:36:55.883Z,98.10
2022-11-08T04:39:25.252Z,98.80
2022-11-08T04:41:56.442Z,98.70
2022-11-08T04:44:27.244Z,98.30
2022-11-08T04:46:55.233Z,97.70
2022-11-08T04:49:23.219Z,97.20
2022-11-08T04:51:51.332Z,97.50
2022-11-08T04:54:19.332Z,97.30
2022-11-08T04:56:48.680Z,96.70
2022-11-08T04:59:16.668Z,96.60
2022-11-08T05:01:44.729Z,96.40
2022-11-08T05:04:12.837Z,97.00
2022-11-08T05:06:40.854Z,97.50
2022-11-08T05:09:08.855Z,97.50
2022-11-08T05:11:36.773Z,97.40
2022-11-08T05:14:06.145Z,97.00
2022-11-08T05:16:34.188Z,96.60
2022-11-08T05:19:02.685Z,96.30
2022-11-08T05:21:48.344Z,95.80
2022-11-08T05:24:18.695Z,96.60
2022-11-08T05:26:48.297Z,96.40
2022-11-08T05:29:17.555Z,96.20
2022-11-08T05:31:45.971Z,96.50
2022-11-08T05:34:15.113Z,96.70
2022-11-08T05:36:43.139Z,96.90
2022-11-08T05:39:11.116Z,97.40
2022-11-08T05:41:39.098Z,97.50
2022-11-08T05:44:07.264Z,98.20
2022-11-08T05:46:36.599Z,98.50
2022-11-08T05:49:04.624Z,98.60
2022-11-08T05:51:33.355Z,99.90
2022-11-08T05:54:01.355Z,99.90
2022-11-08T05:56:29.445Z,99.90
2022-11-08T05:58:57.534Z,99.90
2022-11-08T06:01:25.603Z,99.90
2022-11-08T06:03:55.002Z,99.90
2022-11-08T06:06:23.735Z,99.90
2022-11-08T06:08:54.361Z,99.90
2022-11-08T06:11:24.248Z,99.90
2022-11-08T06:13:53.374Z,99.90
2022-11-08T06:16:22.751Z,99.90
2022-11-08T06:18:50.841Z,99.90
2022-11-08T06:21:21.690Z,99.90
2022-11-08T06:23:52.760Z,99.90
2022-11-08T06:26:20.808Z,99.90
2022-11-08T06:28:49.037Z,99.70
2022-11-08T06:31:17.024Z,99.50
2022-11-08T06:33:45.064Z,99.10
2022-11-08T06:36:13.071Z,99.70
2022-11-08T06:38:42.462Z,99.50
2022-11-08T06:41:18.774Z,99.90
2022-11-08T06:43:46.780Z,99.90
2022-11-08T06:46:14.867Z,99.90
2022-11-08T06:48:42.939Z,99.90
2022-11-08T06:51:10.940Z,99.90
2022-11-08T06:53:38.960Z,99.90
2022-11-08T06:56:08.995Z,99.90
2022-11-08T06:58:36.987Z,99.90
2022-11-08T07:01:05.832Z,99.90
2022-11-08T07:03:33.982Z,99.90
2022-11-08T07:06:02.824Z,99.90
2022-11-08T07:08:30.961Z,99.90
2022-11-08T07:10:59.114Z,99.90
2022-11-08T07:13:28.597Z,99.90
2022-11-08T07:15:59.087Z,99.90
2022-11-08T07:18:27.763Z,99.90
2022-11-08T07:20:59.828Z,99.90
2022-11-08T07:23:27.989Z,99.90
2022-11-08T07:25:56.407Z,99.90
2022-11-08T07:28:24.418Z,99.90
2022-11-08T07:30:59.752Z,99.90
2022-11-08T07:33:27.809Z,99.90
2022-11-08T07:35:55.787Z,99.90
2022-11-08T07:38:26.015Z,99.90
2022-11-08T07:40:57.726Z,99.90
2022-11-08T07:43:26.859Z,99.90
2022-11-08T07:45:57.492Z,99.90
2022-11-08T07:48:26.356Z,99.90
2022-11-08T07:50:54.471Z,99.90
2022-11-08T07:53:22.951Z,99.90
2022-11-08T07:55:51.259Z,99.90
2022-11-08T07:58:19.254Z,99.90
2022-11-08T08:00:49.852Z,99.90
2022-11-08T08:03:19.866Z,99.90
2022-11-08T08:05:57.904Z,99.90
2022-11-08T08:08:28.842Z,99.90
2022-11-08T08:10:59.129Z,99.90
2022-11-08T08:13:27.322Z,99.90
2022-11-08T08:15:58.854Z,99.90
2022-11-08T08:18:28.652Z,99.90
2022-11-08T08:20:56.784Z,98.40
2022-11-08T08:23:24.799Z,97.50
2022-11-08T08:25:52.809Z,96.90
2022-11-08T08:28:20.871Z,96.00
2022-11-08T08:30:48.875Z,95.60
2022-11-08T08:33:34.732Z,94.90
2022-11-08T08:36:05.375Z,91.20
2022-11-08T08:38:34.531Z,90.80
2022-11-08T08:41:03.264Z,82.40
2022-11-08T08:43:32.460Z,82.40
2022-11-08T08:46:01.588Z,77.40
2022-11-08T08:48:29.867Z,74.90
2022-11-08T08:50:58.303Z,71.40
2022-11-08T08:53:27.839Z,71.20
2022-11-08T08:55:55.643Z,71.60
2022-11-08T08:58:23.920Z,61.90
2022-11-08T09:03:40.047Z,53.70
2022-11-08T09:06:08.196Z,34.70
2022-11-08T09:08:37.734Z,25.00
2022-11-08T09:11:06.188Z,31.30
2022-11-08T09:13:34.310Z,27.10
2022-11-08T09:16:03.530Z,32.30
2022-11-08T09:18:32.224Z,24.00
2022-11-08T09:21:01.064Z,16.50
2022-11-08T09:23:29.137Z,20.70
2022-11-08T09:26:03.481Z,9.80
2022-11-08T09:28:32.728Z,1.00
2022-11-08T09:31:02.763Z,1.00
2022-11-08T09:33:30.849Z,1.00
2022-11-08T09:36:00.431Z,1.00
2022-11-08T09:38:28.428Z,1.00
2022-11-08T09:41:14.967Z,1.00
2022-11-08T09:44:01.274Z,1.00
2022-11-08T09:46:38.287Z,1.00
2022-11-08T09:49:10.798Z,1.00
2022-11-08T09:51:39.708Z,1.00
2022-11-08T09:54:18.476Z,1.00
2022-11-08T09:56:49.497Z,1.00
2022-11-08T09:59:31.372Z,1.00
2022-11-08T10:01:59.608Z,1.00
2022-11-08T10:04:29.933Z,1.00
2022-11-08T10:07:13.245Z,1.00
2022-11-08T10:09:54.501Z,1.00
2022-11-08T10:12:32.716Z,1.00
2022-11-08T10:15:15.728Z,1.00
2022-11-08T10:18:13.993Z,1.00
2022-11-08T10:20:52.881Z,1.00
2022-11-08T10:23:23.816Z,1.00
2022-11-08T10:25:56.917Z,1.00
2022-11-08T10:28:31.960Z,1.00
2022-11-08T10:31:00.639Z,1.00
2022-11-08T10:33:33.360Z,1.00
2022-11-08T10:36:07.924Z,1.00
2022-11-08T10:38:40.819Z,1.00
2022-11-08T10:41:15.358Z,1.00
2022-11-08T10:43:50.841Z,1.00
2022-11-08T10:46:41.991Z,99.90
2022-11-08T10:49:14.872Z,99.90
2022-11-08T10:51:44.599Z,99.90
2022-11-08T10:54:46.251Z,99.90
2022-11-08T10:57:15.747Z,99.90
2022-11-08T10:59:46.349Z,99.90
2022-11-08T11:02:24.682Z,99.90
2022-11-08T11:04:54.246Z,99.90
2022-11-08T11:07:34.423Z,99.90
2022-11-08T11:10:25.182Z,99.90
2022-11-08T11:13:01.620Z,99.90
2022-11-08T11:15:35.231Z,99.90
2022-11-08T11:18:03.871Z,99.90
2022-11-08T11:20:32.182Z,99.90
2022-11-08T11:23:01.441Z,99.90
2022-11-08T11:25:29.820Z,99.90
2022-11-08T11:27:59.705Z,99.90
2022-11-08T11:30:34.687Z,99.90
2022-11-08T11:33:19.641Z,99.90
2022-11-08T11:35:52.858Z,99.90
2022-11-08T11:38:31.216Z,99.90
2022-11-08T11:41:09.849Z,99.90
2022-11-08T11:43:45.073Z,99.90
2022-11-08T11:46:22.102Z,99.90
2022-11-08T11:48:56.782Z,99.90
2022-11-08T11:51:29.518Z,99.90
2022-11-08T11:53:58.142Z,99.90
2022-11-08T11:56:46.677Z,99.90
2022-11-08T11:59:31.453Z,99.90
2022-11-08T12:02:40.909Z,99.90
2022-11-08T12:05:30.201Z,99.90
2022-11-08T12:08:11.473Z,99.90
2022-11-08T12:10:54.410Z,99.90
2022-11-08T12:13:29.887Z,99.90
2022-11-08T12:16:04.923Z,99.90
2022-11-08T12:18:49.553Z,99.90
2022-11-08T12:21:27.380Z,99.90
2022-11-08T12:24:17.529Z,99.90
2022-11-08T12:26:53.544Z,99.90
2022-11-08T12:29:26.858Z,99.90
2022-11-08T12:32:17.840Z,99.90
2022-11-08T12:34:57.995Z,99.90
2022-11-08T12:37:39.841Z,99.90
2022-11-08T12:40:20.255Z,99.90
2022-11-08T12:43:05.923Z,99.90
2022-11-08T12:45:48.031Z,99.90
2022-11-08T12:48:29.512Z,99.90
2022-11-08T12:51:06.272Z,99.90
2022-11-08T12:53:54.402Z,99.90
2022-11-08T12:56:25.612Z,99.90
2022-11-08T12:58:55.558Z,99.90
2022-11-08T13:01:24.701Z,99.90
2022-11-08T13:04:19.967Z,99.90
2022-11-08T13:06:55.418Z,99.90
2022-11-08T13:09:34.384Z,99.90
2022-11-08T13:12:05.451Z,99.90
2022-11-08T13:14:39.989Z,99.90
2022-11-08T13:17:20.384Z,99.90
2022-11-08T13:20:02.019Z,99.90
2022-11-08T13:22:59.130Z,99.90
2022-11-08T13:25:41.723Z,99.90
2022-11-08T13:28:35.955Z,99.90
2022-11-08T13:31:13.180Z,99.90
2022-11-08T13:33:49.938Z,99.90
2022-11-08T13:36:28.449Z,99.90
2022-11-08T13:39:12.926Z,99.90
2022-11-08T13:42:02.579Z,99.90
2022-11-08T13:44:57.687Z,99.90
2022-11-08T13:47:53.391Z,99.90
2022-11-08T13:50:55.526Z,99.90
2022-11-08T13:53:57.744Z,99.90
2022-11-08T13:56:52.232Z,99.90
2022-11-08T13:59:59.835Z,99.90
2022-11-08T14:02:35.504Z,99.90
2022-11-08T14:05:28.372Z,99.90
2022-11-08T14:08:21.402Z,99.90
2022-11-08T14:11:16.966Z,99.90
2022-11-08T14:14:23.826Z,99.90
2022-11-08T14:17:08.368Z,99.90
2022-11-08T14:19:39.586Z,99.90
2022-11-08T14:22:16.641Z,99.90
2022-11-08T14:24:45.739Z,99.90
2022-11-08T14:27:16.048Z,99.90
2022-11-08T14:29:44.319Z,99.90
2022-11-08T14:32:21.199Z,99.90
2022-11-08T14:34:49.293Z,99.90
2022-11-08T14:37:24.326Z,99.90
2022-11-08T14:39:53.232Z,99.90
2022-11-08T14:42:24.380Z,99.90
2022-11-08T14:44:55.371Z,99.90
2022-11-08T14:47:27.296Z,99.90
2022-11-08T14:49:55.378Z,1.00
2022-11-08T14:52:27.328Z,1.00
2022-11-08T14:55:05.972Z,1.00
2022-11-08T14:57:38.401Z,1.00
2022-11-08T15:00:15.829Z,1.00
2022-11-08T15:02:48.784Z,1.00
2022-11-08T15:05:36.355Z,1.00
2022-11-08T15:08:08.117Z,1.00
2022-11-08T15:10:36.190Z,1.00
2022-11-08T15:13:04.387Z,1.00
2022-11-08T15:15:34.565Z,1.00
2022-11-08T15:18:14.297Z,1.00
2022-11-08T15:20:54.695Z,1.00
2022-11-08T15:23:28.411Z,1.00
2022-11-08T15:25:58.101Z,1.00
2022-11-08T15:28:31.322Z,1.00
2022-11-08T15:31:01.814Z,1.00
2022-11-08T15:33:35.597Z,1.00
2022-11-08T15:36:04.608Z,1.00
2022-11-08T15:38:36.782Z,1.00
2022-11-08T15:41:26.378Z,1.00
2022-11-08T15:44:06.659Z,1.00
2022-11-08T15:46:38.162Z,1.00
2022-11-08T15:49:20.847Z,1.00
2022-11-08T15:51:50.000Z,1.00
2022-11-08T15:54:19.392Z,1.00
2022-11-08T15:56:48.209Z,6.90
2022-11-08T15:59:21.540Z,1.00
2022-11-08T16:01:57.634Z,3.80
2022-11-08T16:04:26.022Z,5.50
2022-11-08T16:06:54.103Z,6.00
2022-11-08T16:09:22.195Z,5.60
2022-11-08T16:11:50.906Z,7.10
2022-11-08T16:14:23.462Z,8.80
2022-11-08T16:16:51.855Z,13.20
2022-11-08T16:19:22.312Z,7.50
2022-11-08T16:21:50.608Z,3.10
2022-11-08T16:24:19.198Z,5.40
2022-11-08T16:26:48.084Z,9.00
2022-11-08T16:29:25.079Z,9.20
2022-11-08T16:31:53.550Z,18.90
2022-11-08T16:34:22.280Z,15.00
2022-11-08T16:36:51.984Z,12.70
2022-11-08T16:39:26.066Z,16.60
2022-11-08T16:41:54.063Z,13.00
2022-11-08T16:44:23.860Z,20.40
2022-11-08T16:46:54.093Z,23.30
2022-11-08T16:49:25.124Z,25.80
2022-11-08T16:51:53.108Z,25.70
2022-11-08T16:54:23.998Z,23.80
2022-11-08T16:57:03.388Z,28.90
2022-11-08T16:59:41.482Z,32.80
2022-11-08T17:02:21.251Z,36.70
2022-11-08T17:04:49.297Z,38.50
2022-11-08T17:07:17.404Z,38.50
2022-11-08T17:09:45.456Z,38.70
2022-11-08T17:12:13.472Z,38.70
2022-11-08T17:14:42.809Z,39.50
2022-11-08T17:17:12.924Z,32.50
2022-11-08T17:19:41.416Z,37.20
2022-11-08T17:22:09.466Z,39.50
2022-11-08T17:24:37.562Z,42.10
2022-11-08T17:27:05.604Z,40.80
2022-11-08T17:29:33.572Z,45.60
2022-11-08T17:32:03.074Z,43.10
2022-11-08T17:34:31.508Z,46.20
2022-11-08T17:36:59.555Z,47.10
2022-11-08T17:39:27.677Z,44.70
2022-11-08T17:41:55.723Z,44.70
2022-11-08T17:44:23.763Z,46.80
2022-11-08T17:46:51.778Z,41.10
2022-11-08T17:49:21.181Z,46.40
2022-11-08T17:51:49.266Z,40.30
2022-11-08T17:54:17.419Z,44.70
2022-11-08T17:56:45.418Z,40.50
2022-11-08T17:59:13.488Z,42.90
2022-11-08T18:01:41.673Z,41.90
2022-11-08T18:04:11.179Z,46.40
2022-11-08T18:06:40.585Z,45.40
2022-11-08T18:09:09.250Z,47.70
2022-11-08T18:11:38.068Z,55.10
2022-11-08T18:14:06.259Z,48.30
2022-11-08T18:16:35.179Z,47.80
2022-11-08T18:19:03.153Z,46.90
2022-11-08T18:21:31.121Z,48.10
2022-11-08T18:24:00.676Z,49.30
2022-11-08T18:26:28.944Z,52.30
2022-11-08T18:28:56.967Z,54.50
2022-11-08T18:31:26.123Z,52.40
2022-11-08T18:33:54.116Z,53.70
2022-11-08T18:36:23.537Z,51.80
2022-11-08T18:38:52.619Z,53.90
2022-11-08T18:41:25.127Z,55.80
2022-11-08T18:43:53.778Z,54.40
2022-11-08T18:46:24.231Z,57.90
2022-11-08T18:48:53.155Z,57.60
2022-11-08T18:51:22.808Z,58.00
2022-11-08T18:53:52.265Z,60.10
2022-11-08T18:56:22.494Z,60.80
2022-11-08T18:58:51.734Z,63.50
2022-11-08T19:01:19.907Z,65.80
2022-11-08T19:03:47.905Z,68.70
2022-11-08T19:06:15.921Z,72.60
2022-11-08T19:08:43.938Z,74.60
2022-11-08T19:11:13.013Z,68.50
2022-11-08T19:13:42.998Z,71.90
2022-11-08T19:16:14.307Z,69.60
2022-11-08T19:18:43.253Z,70.10
2022-11-08T19:21:13.788Z,67.80
2022-11-08T19:23:42.398Z,70.70
2022-11-08T19:26:13.139Z,73.30
2022-11-08T19:28:45.384Z,72.90
2022-11-08T19:31:13.859Z,71.50
2022-11-08T19:33:41.992Z,75.20
2022-11-08T19:36:13.523Z,67.70
2022-11-08T19:38:41.897Z,67.80
2022-11-08T19:41:11.742Z,76.70
2022-11-08T19:43:43.222Z,74.00
2022-11-08T19:46:13.816Z,77.70
2022-11-08T19:48:43.721Z,76.80
2022-11-08T19:51:15.072Z,74.70
2022-11-08T19:53:43.488Z,78.60
2022-11-08T19:56:13.705Z,77.20
2022-11-08T19:58:45.039Z,77.50
2022-11-08T20:01:15.621Z,75.50
2022-11-08T20:03:43.807Z,75.00
2022-11-08T20:06:12.510Z,76.80
2022-11-08T20:08:40.668Z,78.30
2022-11-08T20:11:12.548Z,78.90
2022-11-08T20:13:42.241Z,79.40
2022-11-08T20:16:11.030Z,84.00
2022-11-08T20:18:39.436Z,88.30
2022-11-08T20:21:08.473Z,87.60
2022-11-08T20:23:37.029Z,86.10
2022-11-08T20:26:06.871Z,86.20
2022-11-08T20:28:36.380Z,87.50
2022-11-08T20:31:13.915Z,90.00
2022-11-08T20:33:42.431Z,87.50
2022-11-08T20:36:13.052Z,91.20
2022-11-08T20:38:41.476Z,90.10
2022-11-08T20:41:11.955Z,89.20
2022-11-08T20:43:41.170Z,90.00
2022-11-08T20:46:12.986Z,91.20
2022-11-08T20:48:42.731Z,90.80
2022-11-08T20:51:12.446Z,90.50
2022-11-08T20:53:40.836Z,90.40
2022-11-08T20:56:12.130Z,90.70
2022-11-08T20:58:41.158Z,91.10
2022-11-08T21:01:13.346Z,88.70
2022-11-08T21:03:42.265Z,88.50
2022-11-08T21:06:12.151Z,91.20
2022-11-08T21:11:30.041Z,89.30
2022-11-08T21:13:58.117Z,88.10
2022-11-08T21:16:30.454Z,91.20
2022-11-08T21:19:00.139Z,88.90
2022-11-08T21:21:28.368Z,90.70
2022-11-08T21:23:56.490Z,91.70
2022-11-08T21:26:24.699Z,91.40
2022-11-08T21:28:53.160Z,89.50
2022-11-08T21:31:21.254Z,87.20
2022-11-08T21:33:50.596Z,83.50
2022-11-08T21:36:18.638Z,86.20
2022-11-08T21:38:46.670Z,88.80
2022-11-08T21:41:14.703Z,90.40
2022-11-08T21:43:44.448Z,92.10
2022-11-08T21:46:17.158Z,91.30
2022-11-08T21:48:45.909Z,90.80
2022-11-08T21:51:16.142Z,92.40
2022-11-08T21:53:53.639Z,92.20
2022-11-08T21:56:22.955Z,92.40
2022-11-08T21:58:50.961Z,93.40
2022-11-08T22:01:19.451Z,92.60
2022-11-08T22:03:47.807Z,91.00
2022-11-08T22:06:17.173Z,90.10
2022-11-08T22:08:45.235Z,91.00
2022-11-08T22:11:13.289Z,91.10
2022-11-08T22:13:41.345Z,89.70
2022-11-08T22:16:09.487Z,90.50
2022-11-08T22:21:39.233Z,91.50
2022-11-08T22:24:08.337Z,91.70
2022-11-08T22:26:36.625Z,90.60
2022-11-08T22:29:05.199Z,91.40
2022-11-08T22:31:33.543Z,91.20
2022-11-08T22:34:01.982Z,92.30
2022-11-08T22:36:31.409Z,92.10
2022-11-08T22:38:59.592Z,91.60
2022-11-08T22:41:27.968Z,93.40
2022-11-08T22:43:56.503Z,94.00
2022-11-08T22:46:24.783Z,93.20
2022-11-08T22:48:52.844Z,91.20
2022-11-08T22:51:20.867Z,91.20
2022-11-08T22:53:50.234Z,91.00
2022-11-08T22:56:18.269Z,92.50
2022-11-08T22:58:46.343Z,92.10
2022-11-08T23:01:16.257Z,93.60
2022-11-08T23:03:46.616Z,92.10
2022-11-08T23:06:14.841Z,93.40
2022-11-08T23:08:43.275Z,92.30
2022-11-08T23:11:30.156Z,92.30
2022-11-08T23:14:15.870Z,93.70
2022-11-08T23:16:45.720Z,93.20
2022-11-08T23:19:33.598Z,94.10
2022-11-08T23:22:20.195Z,93.80
2022-11-08T23:24:48.174Z,94.90
2022-11-08T23:27:36.708Z,95.70
2022-11-08T23:30:22.717Z,96.30
2022-11-08T23:32:52.237Z,95.40
2022-11-08T23:35:22.074Z,95.30
2022-11-08T23:37:50.177Z,95.10
2022-11-08T23:40:37.398Z,95.90
2022-11-08T23:43:27.409Z,95.50
2022-11-08T23:45:55.615Z,96.20
2022-11-08T23:48:23.615Z,95.50
2022-11-08T23:50:54.737Z,97.10
2022-11-08T23:53:25.723Z,96.70
2022-11-08T23:55:54.212Z,96.20
2022-11-08T23:58:24.731Z,95.80
